createdAt,value
2017-06-15T00:00:59.694Z,42.39
2017-06-15T00:02:09.962Z,42.87
2017-06-15T00:03:19.907Z,42.77
2017-06-15T00:04:29.859Z,42.48
2017-06-15T00:05:39.814Z,42.48
2017-06-15T00:06:49.768Z,42.58
2017-06-15T00:07:59.092Z,42.87
2017-06-15T00:09:09.044Z,42.29
2017-06-15T00:10:18.993Z,42.68
2017-06-15T00:11:29.258Z,42.87
2017-06-15T00:12:39.211Z,42.58
2017-06-15T00:13:49.467Z,42.87
2017-06-15T00:14:59.450Z,42.48
2017-06-15T00:16:09.449Z,42.39
2017-06-15T00:17:19.710Z,42.48
2017-06-15T00:18:29.347Z,42.68
2017-06-15T00:19:39.612Z,42.68
2017-06-15T00:20:49.570Z,42.97
2017-06-15T00:21:59.519Z,42.29
2017-06-15T00:23:09.787Z,42.97
2017-06-15T00:24:20.051Z,42.39
2017-06-15T00:25:29.704Z,42.87
2017-06-15T00:26:39.647Z,42.77
2017-06-15T00:27:49.911Z,42.77
2017-06-15T00:28:59.861Z,42.58
2017-06-15T00:30:10.127Z,42.87
2017-06-15T00:31:20.075Z,42.87
2017-06-15T00:32:30.338Z,42.29
2017-06-15T00:33:40.290Z,42.97
2017-06-15T00:34:50.245Z,42.58
2017-06-15T00:36:00.510Z,42.68
2017-06-15T00:37:10.464Z,42.39
2017-06-15T00:38:20.113Z,42.97
2017-06-15T00:39:30.062Z,42.39
2017-06-15T00:40:40.003Z,42.39
2017-06-15T00:41:50.276Z,42.97
2017-06-15T00:43:00.537Z,42.39
2017-06-15T00:44:10.802Z,42.48
2017-06-15T00:45:21.066Z,43.06
2017-06-15T00:46:31.327Z,43.06
2017-06-15T00:47:41.588Z,43.26
2017-06-15T00:48:51.851Z,42.97
2017-06-15T00:50:01.806Z,42.77
2017-06-15T00:51:12.075Z,42.39
2017-06-15T00:52:22.336Z,42.58
2017-06-15T00:53:32.610Z,42.77
2017-06-15T00:54:42.876Z,42.77
2017-06-15T00:55:53.151Z,43.06
2017-06-15T00:57:03.104Z,42.77
2017-06-15T00:58:12.741Z,43.16
2017-06-15T00:59:23.007Z,42.87
2017-06-15T01:00:33.274Z,43.16
2017-06-15T01:01:43.537Z,42.77
2017-06-15T01:02:53.489Z,43.06
2017-06-15T01:04:03.443Z,43.06
2017-06-15T01:05:13.708Z,42.77
2017-06-15T01:06:23.662Z,43.16
2017-06-15T01:07:33.607Z,42.87
2017-06-15T01:08:43.558Z,42.87
2017-06-15T01:09:53.822Z,43.06
2017-06-15T01:11:04.118Z,43.06
2017-06-15T01:12:14.064Z,43.06
2017-06-15T01:13:24.325Z,43.06
2017-06-15T01:14:34.592Z,43.16
2017-06-15T01:15:44.853Z,42.68
2017-06-15T01:16:54.487Z,42.77
2017-06-15T01:18:04.748Z,42.87
2017-06-15T01:19:15.049Z,43.06
2017-06-15T01:20:24.997Z,42.97
2017-06-15T01:21:34.945Z,43.06
2017-06-15T01:22:44.888Z,42.87
2017-06-15T01:23:54.836Z,42.77
2017-06-15T01:25:05.097Z,43.06
2017-06-15T01:26:15.044Z,43.16
2017-06-15T01:27:24.676Z,42.97
2017-06-15T01:28:34.005Z,42.68
2017-06-15T01:29:43.955Z,42.68
2017-06-15T01:30:54.220Z,43.06
2017-06-15T01:32:03.854Z,42.97
2017-06-15T01:33:13.485Z,42.77
2017-06-15T01:34:23.751Z,42.87
2017-06-15T01:35:33.696Z,42.87
2017-06-15T01:36:43.965Z,43.06
2017-06-15T01:37:54.230Z,42.87
2017-06-15T01:39:03.880Z,42.77
2017-06-15T01:40:13.522Z,42.77
2017-06-15T01:41:23.159Z,42.87
2017-06-15T01:42:33.418Z,42.87
2017-06-15T01:43:43.369Z,42.87
2017-06-15T01:44:53.633Z,42.87
2017-06-15T01:46:03.891Z,42.77
2017-06-15T01:47:13.841Z,42.58
2017-06-15T01:48:23.168Z,43.16
2017-06-15T01:49:33.120Z,43.06
2017-06-15T01:50:43.383Z,43.06
2017-06-15T01:51:53.649Z,43.26
2017-06-15T01:53:03.303Z,42.77
2017-06-15T01:54:13.575Z,43.06
2017-06-15T01:55:23.218Z,42.97
2017-06-15T01:56:33.190Z,43.16
2017-06-15T01:57:43.137Z,42.77
2017-06-15T01:58:52.778Z,42.77
2017-06-15T02:00:03.038Z,42.97
2017-06-15T02:01:13.025Z,42.87
2017-06-15T02:02:22.974Z,42.68
2017-06-15T02:03:33.269Z,42.87
2017-06-15T02:04:42.911Z,42.97
2017-06-15T02:05:53.182Z,42.68
2017-06-15T02:07:03.446Z,42.97
2017-06-15T02:08:13.117Z,42.58
2017-06-15T02:09:22.751Z,42.87
2017-06-15T02:10:32.700Z,42.87
2017-06-15T02:11:42.673Z,43.26
2017-06-15T02:12:52.319Z,42.77
2017-06-15T02:14:02.587Z,42.87
2017-06-15T02:15:12.851Z,43.16
2017-06-15T02:16:22.800Z,43.06
2017-06-15T02:17:33.071Z,42.97
2017-06-15T02:18:43.334Z,42.97
2017-06-15T02:19:53.291Z,42.77
2017-06-15T02:21:02.933Z,43.06
2017-06-15T02:22:12.575Z,42.68
2017-06-15T02:23:22.526Z,42.97
2017-06-15T02:24:32.794Z,42.87
2017-06-15T02:25:43.058Z,42.68
2017-06-15T02:26:52.688Z,42.97
2017-06-15T02:28:02.637Z,42.87
2017-06-15T02:29:12.587Z,42.97
2017-06-15T02:30:22.223Z,42.87
2017-06-15T02:31:32.174Z,42.87
2017-06-15T02:32:42.444Z,42.87
2017-06-15T02:33:52.389Z,43.35
2017-06-15T02:35:02.367Z,43.16
2017-06-15T02:36:12.629Z,42.87
2017-06-15T02:37:22.901Z,43.16
2017-06-15T02:38:33.164Z,42.87
2017-06-15T02:39:42.793Z,43.16
2017-06-15T02:40:53.058Z,43.06
2017-06-15T02:42:02.683Z,43.16
2017-06-15T02:43:12.001Z,42.97
2017-06-15T02:44:21.952Z,43.06
2017-06-15T02:45:32.211Z,42.77
2017-06-15T02:46:42.479Z,43.35
2017-06-15T02:47:52.749Z,43.74
2017-06-15T02:49:03.007Z,43.16
2017-06-15T02:50:12.957Z,42.87
2017-06-15T02:51:22.913Z,43.16
2017-06-15T02:52:33.196Z,43.26
2017-06-15T02:53:43.144Z,43.16
2017-06-15T02:54:53.095Z,43.06
2017-06-15T02:56:03.073Z,42.97
2017-06-15T02:57:13.023Z,43.16
2017-06-15T02:58:23.288Z,43.06
2017-06-15T02:59:33.552Z,43.16
2017-06-15T03:00:43.817Z,42.97
2017-06-15T03:01:53.782Z,43.26
2017-06-15T03:03:04.076Z,43.26
2017-06-15T03:04:14.338Z,42.77
2017-06-15T03:05:24.606Z,42.97
2017-06-15T03:06:34.863Z,42.97
2017-06-15T03:07:44.852Z,42.87
2017-06-15T03:08:54.809Z,43.26
2017-06-15T03:10:05.083Z,43.16
2017-06-15T03:11:15.366Z,43.16
2017-06-15T03:12:25.636Z,43.16
2017-06-15T03:13:35.629Z,43.26
2017-06-15T03:14:45.893Z,43.26
2017-06-15T03:15:55.841Z,42.87
2017-06-15T03:17:05.477Z,43.16
2017-06-15T03:18:15.108Z,43.06
2017-06-15T03:19:24.746Z,43.06
2017-06-15T03:20:35.014Z,43.26
2017-06-15T03:21:45.276Z,43.35
2017-06-15T03:22:55.227Z,43.16
2017-06-15T03:24:05.180Z,42.87
2017-06-15T03:25:14.825Z,43.06
2017-06-15T03:26:24.460Z,43.16
2017-06-15T03:27:34.723Z,43.06
2017-06-15T03:28:44.669Z,43.16
2017-06-15T03:29:54.306Z,43.16
2017-06-15T03:31:04.256Z,43.35
2017-06-15T03:32:14.516Z,43.26
2017-06-15T03:33:24.482Z,43.16
2017-06-15T03:34:33.808Z,43.16
2017-06-15T03:35:44.070Z,42.97
2017-06-15T03:36:54.017Z,43.06
2017-06-15T03:38:03.971Z,43.16
2017-06-15T03:39:14.233Z,43.16
2017-06-15T03:40:24.524Z,43.45
2017-06-15T03:41:34.476Z,43.16
2017-06-15T03:42:44.424Z,43.45
2017-06-15T03:43:54.699Z,43.16
2017-06-15T03:45:04.963Z,43.35
2017-06-15T03:46:14.910Z,43.06
2017-06-15T03:47:24.859Z,42.97
2017-06-15T03:48:35.120Z,42.68
2017-06-15T03:49:45.069Z,43.14
2017-06-15T03:50:55.333Z,43.6
2017-06-15T03:52:04.967Z,43.5
2017-06-15T03:53:15.232Z,43.62
2017-06-15T03:54:25.498Z,43.52
2017-06-15T03:55:35.759Z,44.01
2017-06-15T03:56:46.017Z,43.91
2017-06-15T03:57:55.659Z,43.35
2017-06-15T03:59:05.610Z,43.54
2017-06-15T04:00:15.559Z,43.54
2017-06-15T04:01:25.825Z,43.54
2017-06-15T04:02:35.791Z,43.35
2017-06-15T04:03:46.047Z,43.54
2017-06-15T04:04:56.012Z,43.54
2017-06-15T04:06:05.965Z,43.54
2017-06-15T04:07:15.920Z,43.64
2017-06-15T04:08:25.556Z,43.74
2017-06-15T04:09:35.824Z,43.64
2017-06-15T04:10:46.085Z,43.64
2017-06-15T04:11:56.029Z,43.64
2017-06-15T04:13:05.981Z,43.45
2017-06-15T04:14:16.247Z,43.64
2017-06-15T04:15:26.512Z,43.64
2017-06-15T04:16:36.771Z,43.54
2017-06-15T04:17:46.410Z,43.64
2017-06-15T04:18:56.677Z,43.74
2017-06-15T04:20:06.623Z,43.54
2017-06-15T04:21:16.577Z,43.54
2017-06-15T04:22:26.529Z,43.84
2017-06-15T04:23:36.784Z,44.03
2017-06-15T04:24:46.415Z,44.22
2017-06-15T04:25:56.370Z,44.22
2017-06-15T04:27:06.319Z,44.12
2017-06-15T04:28:16.583Z,44.32
2017-06-15T04:29:26.222Z,43.84
2017-06-15T04:30:35.866Z,44.51
2017-06-15T04:31:46.140Z,44.32
2017-06-15T04:32:56.406Z,44.22
2017-06-15T04:34:06.363Z,44.22
2017-06-15T04:35:16.626Z,44.51
2017-06-15T04:36:26.892Z,44.32
2017-06-15T04:37:36.849Z,44.51
2017-06-15T04:38:47.118Z,44.32
2017-06-15T04:39:57.073Z,44.42
2017-06-15T04:41:07.020Z,44.22
2017-06-15T04:42:17.289Z,44.42
2017-06-15T04:43:27.556Z,44.22
2017-06-15T04:44:37.818Z,44.22
2017-06-15T04:45:47.449Z,44.22
2017-06-15T04:46:57.713Z,44.03
2017-06-15T04:48:07.659Z,44.03
2017-06-15T04:49:17.939Z,44.03
2017-06-15T04:50:28.211Z,44.42
2017-06-15T04:51:37.847Z,44.22
2017-06-15T04:52:48.114Z,44.03
2017-06-15T04:53:58.377Z,43.93
2017-06-15T04:55:08.026Z,43.93
2017-06-15T04:56:18.291Z,44.03
2017-06-15T04:57:28.258Z,44.03
2017-06-15T04:58:38.518Z,43.84
2017-06-15T04:59:48.153Z,44.34
2017-06-15T05:00:58.105Z,44.32
2017-06-15T05:02:08.055Z,44.03
2017-06-15T05:03:17.998Z,44.43
2017-06-15T05:04:27.634Z,44.8
2017-06-15T05:05:37.587Z,44.8
2017-06-15T05:06:47.877Z,45
2017-06-15T05:07:58.185Z,44.32
2017-06-15T05:09:08.131Z,44.42
2017-06-15T05:10:18.085Z,44.51
2017-06-15T05:11:28.031Z,44.9
2017-06-15T05:12:37.974Z,44.8
2017-06-15T05:13:48.243Z,44.6
2017-06-15T05:14:58.195Z,44.32
2017-06-15T05:16:07.830Z,44.12
2017-06-15T05:17:18.097Z,44.34
2017-06-15T05:18:28.063Z,44.32
2017-06-15T05:19:38.325Z,44.8
2017-06-15T05:20:47.645Z,44.9
2017-06-15T05:21:57.599Z,44.32
2017-06-15T05:23:07.239Z,44.32
2017-06-15T05:24:17.191Z,44.24
2017-06-15T05:25:27.465Z,44.7
2017-06-15T05:26:37.412Z,44.22
2017-06-15T05:27:47.055Z,44.8
2017-06-15T05:28:56.997Z,44.32
2017-06-15T05:30:06.952Z,44.12
2017-06-15T05:31:17.219Z,44.32
2017-06-15T05:32:27.171Z,44.32
2017-06-15T05:33:36.807Z,44.32
2017-06-15T05:34:47.070Z,44.8
2017-06-15T05:35:57.334Z,44.22
2017-06-15T05:37:06.974Z,44.51
2017-06-15T05:38:17.242Z,44.22
2017-06-15T05:39:27.535Z,44.15
2017-06-15T05:40:37.810Z,44.82
2017-06-15T05:41:48.068Z,44.32
2017-06-15T05:42:57.704Z,44.22
2017-06-15T05:44:07.978Z,44.92
2017-06-15T05:45:18.243Z,44.12
2017-06-15T05:46:28.189Z,44.24
2017-06-15T05:47:38.450Z,44.82
2017-06-15T05:48:48.086Z,44.24
2017-06-15T05:49:58.350Z,44.82
2017-06-15T05:51:07.979Z,44.22
2017-06-15T05:52:18.245Z,44.22
2017-06-15T05:53:28.512Z,44.15
2017-06-15T05:54:38.773Z,44.9
2017-06-15T05:55:48.726Z,44.24
2017-06-15T05:56:58.679Z,44.32
2017-06-15T05:58:08.318Z,44.82
2017-06-15T05:59:18.272Z,44.15
2017-06-15T06:00:28.526Z,44.9
2017-06-15T06:01:38.793Z,44.34
2017-06-15T06:02:48.738Z,44.92
2017-06-15T06:03:59.002Z,44.63
2017-06-15T06:05:08.949Z,44.15
2017-06-15T06:06:18.899Z,44.82
2017-06-15T06:07:29.169Z,44.34
2017-06-15T06:08:38.801Z,44.15
2017-06-15T06:09:48.125Z,44.82
2017-06-15T06:10:58.386Z,44.82
2017-06-15T06:12:07.705Z,44.82
2017-06-15T06:13:17.963Z,44.53
2017-06-15T06:14:27.285Z,44.43
2017-06-15T06:15:37.553Z,44.34
2017-06-15T06:16:47.821Z,44.53
2017-06-15T06:17:57.774Z,44.63
2017-06-15T06:19:08.037Z,44.43
2017-06-15T06:20:17.673Z,44.63
2017-06-15T06:21:27.310Z,44.24
2017-06-15T06:22:37.575Z,44.15
2017-06-15T06:23:47.843Z,44.24
2017-06-15T06:24:58.111Z,44.63
2017-06-15T06:26:08.054Z,44.53
2017-06-15T06:27:17.687Z,44.63
2017-06-15T06:28:27.956Z,44.34
2017-06-15T06:29:38.232Z,44.53
2017-06-15T06:30:47.871Z,44.53
2017-06-15T06:31:58.139Z,44.24
2017-06-15T06:33:07.783Z,44.53
2017-06-15T06:34:17.735Z,44.15
2017-06-15T06:35:27.683Z,44.24
2017-06-15T06:36:37.946Z,44.53
2017-06-15T06:37:48.218Z,44.34
2017-06-15T06:38:58.168Z,44.24
2017-06-15T06:40:08.434Z,44.34
2017-06-15T06:41:18.068Z,44.24
2017-06-15T06:42:28.331Z,44.05
2017-06-15T06:43:38.288Z,44.82
2017-06-15T06:44:48.240Z,44.34
2017-06-15T06:45:58.511Z,44.34
2017-06-15T06:47:08.776Z,44.34
2017-06-15T06:48:19.040Z,44.53
2017-06-15T06:49:28.986Z,44.34
2017-06-15T06:50:39.253Z,44.24
2017-06-15T06:51:49.522Z,44.34
2017-06-15T06:52:59.469Z,44.34
2017-06-15T06:54:09.108Z,44.34
2017-06-15T06:55:19.059Z,44.24
2017-06-15T06:56:29.321Z,44.82
2017-06-15T06:57:38.959Z,45.01
2017-06-15T06:58:49.227Z,44.34
2017-06-15T06:59:59.177Z,44.24
2017-06-15T07:01:09.138Z,44.24
2017-06-15T07:02:18.771Z,44.36
2017-06-15T07:03:28.717Z,44.82
2017-06-15T07:04:38.979Z,44.24
2017-06-15T07:05:49.251Z,44.15
2017-06-15T07:06:59.204Z,44.24
2017-06-15T07:08:08.843Z,44.24
2017-06-15T07:09:18.794Z,44.63
2017-06-15T07:10:28.744Z,44.24
2017-06-15T07:11:39.005Z,44.05
2017-06-15T07:12:48.951Z,44.73
2017-06-15T07:13:59.239Z,44.46
2017-06-15T07:15:09.190Z,44.24
2017-06-15T07:16:19.471Z,44.43
2017-06-15T07:17:29.736Z,44.26
2017-06-15T07:18:40.001Z,44.92
2017-06-15T07:19:49.956Z,44.63
2017-06-15T07:21:00.223Z,44.24
2017-06-15T07:22:10.173Z,44.46
2017-06-15T07:23:20.127Z,44.73
2017-06-15T07:24:30.088Z,44.53
2017-06-15T07:25:40.038Z,44.26
2017-06-15T07:26:49.676Z,44.53
2017-06-15T07:27:59.631Z,44.34
2017-06-15T07:29:09.581Z,44.17
2017-06-15T07:30:19.847Z,44.65
2017-06-15T07:31:29.792Z,44.56
2017-06-15T07:32:39.116Z,44.56
2017-06-15T07:33:49.382Z,44.56
2017-06-15T07:34:59.648Z,44.56
2017-06-15T07:36:09.600Z,44.17
2017-06-15T07:37:19.236Z,44.46
2017-06-15T07:38:29.188Z,44.46
2017-06-15T07:39:38.824Z,44.56
2017-06-15T07:40:48.770Z,44.56
2017-06-15T07:41:58.411Z,44.53
2017-06-15T07:43:08.048Z,44.75
2017-06-15T07:44:18.002Z,44.65
2017-06-15T07:45:28.266Z,44.46
2017-06-15T07:46:38.221Z,44.65
2017-06-15T07:47:48.172Z,44.26
2017-06-15T07:48:58.430Z,44.65
2017-06-15T07:50:08.070Z,44.84
2017-06-15T07:51:18.017Z,45.04
2017-06-15T07:52:27.337Z,44.84
2017-06-15T07:53:36.974Z,44.84
2017-06-15T07:54:46.919Z,44.94
2017-06-15T07:55:56.872Z,44.56
2017-06-15T07:57:07.139Z,44.94
2017-06-15T07:58:17.091Z,44.94
2017-06-15T07:59:27.359Z,45.14
2017-06-15T08:00:37.313Z,45.04
2017-06-15T08:01:46.998Z,44.56
2017-06-15T08:02:57.272Z,45.04
2017-06-15T08:04:07.230Z,45.04
2017-06-15T08:05:17.184Z,44.84
2017-06-15T08:06:27.137Z,45.04
2017-06-15T08:07:37.404Z,45.14
2017-06-15T08:08:47.666Z,45.14
2017-06-15T08:09:57.613Z,44.84
2017-06-15T08:11:07.877Z,45.04
2017-06-15T08:12:17.511Z,44.84
2017-06-15T08:13:27.464Z,45.14
2017-06-15T08:14:37.417Z,44.94
2017-06-15T08:15:47.362Z,44.84
2017-06-15T08:16:57.629Z,45.04
2017-06-15T08:18:07.583Z,44.84
2017-06-15T08:19:17.541Z,44.94
2017-06-15T08:20:26.865Z,44.92
2017-06-15T08:21:36.814Z,45.04
2017-06-15T08:22:47.085Z,45.04
2017-06-15T08:23:57.352Z,44.84
2017-06-15T08:25:07.618Z,45.23
2017-06-15T08:26:17.577Z,44.84
2017-06-15T08:27:27.851Z,44.84
2017-06-15T08:28:38.119Z,44.94
2017-06-15T08:29:48.070Z,44.94
2017-06-15T08:30:57.706Z,44.94
2017-06-15T08:32:07.976Z,45.33
2017-06-15T08:33:17.939Z,45.23
2017-06-15T08:34:27.893Z,44.94
2017-06-15T08:35:38.158Z,44.84
2017-06-15T08:36:48.425Z,44.94
2017-06-15T08:37:58.689Z,45.23
2017-06-15T08:39:08.323Z,44.84
2017-06-15T08:40:18.583Z,45.31
2017-06-15T08:41:28.847Z,44.75
2017-06-15T08:42:39.109Z,44.84
2017-06-15T08:43:49.372Z,44.56
2017-06-15T08:44:59.339Z,44.65
2017-06-15T08:46:09.610Z,44.46
2017-06-15T08:47:19.875Z,44.65
2017-06-15T08:48:29.512Z,44.84
2017-06-15T08:49:39.777Z,44.84
2017-06-15T08:50:49.727Z,44.84
2017-06-15T08:51:59.691Z,45.23
2017-06-15T08:53:09.953Z,45.14
2017-06-15T08:54:20.215Z,45.23
2017-06-15T08:55:30.477Z,44.84
2017-06-15T08:56:39.796Z,45.04
2017-06-15T08:57:50.075Z,44.65
2017-06-15T08:59:00.031Z,45.33
2017-06-15T09:00:10.297Z,44.94
2017-06-15T09:01:20.251Z,45.14
2017-06-15T09:02:30.230Z,44.65
2017-06-15T09:03:40.509Z,44.75
2017-06-15T09:04:50.455Z,45.14
2017-06-15T09:06:00.723Z,44.84
2017-06-15T09:07:10.677Z,45.14
2017-06-15T09:08:20.630Z,44.65
2017-06-15T09:09:30.893Z,44.65
2017-06-15T09:10:41.163Z,45.23
2017-06-15T09:11:51.115Z,44.65
2017-06-15T09:13:01.067Z,44.56
2017-06-15T09:14:11.027Z,44.84
2017-06-15T09:15:21.293Z,44.94
2017-06-15T09:16:31.239Z,45.33
2017-06-15T09:17:41.216Z,44.73
2017-06-15T09:18:51.170Z,44.84
2017-06-15T09:20:00.803Z,44.56
2017-06-15T09:21:10.757Z,44.84
2017-06-15T09:22:21.019Z,44.75
2017-06-15T09:23:31.289Z,44.94
2017-06-15T09:24:41.562Z,44.46
2017-06-15T09:25:51.511Z,45.14
2017-06-15T09:27:01.147Z,44.46
2017-06-15T09:28:11.103Z,45.42
2017-06-15T09:29:21.370Z,44.56
2017-06-15T09:30:31.634Z,44.84
2017-06-15T09:31:41.901Z,44.65
2017-06-15T09:32:51.878Z,44.75
2017-06-15T09:34:01.827Z,44.84
2017-06-15T09:35:11.798Z,44.56
2017-06-15T09:36:21.748Z,44.56
2017-06-15T09:37:31.697Z,44.56
2017-06-15T09:38:41.965Z,44.75
2017-06-15T09:39:51.916Z,44.36
2017-06-15T09:41:02.182Z,44.75
2017-06-15T09:42:12.451Z,44.84
2017-06-15T09:43:22.717Z,45.23
2017-06-15T09:44:32.672Z,45.33
2017-06-15T09:45:42.943Z,45.04
2017-06-15T09:46:52.895Z,44.46
2017-06-15T09:48:02.849Z,45.23
2017-06-15T09:49:12.805Z,44.65
2017-06-15T09:50:23.077Z,45.23
2017-06-15T09:51:33.030Z,44.65
2017-06-15T09:52:43.299Z,44.65
2017-06-15T09:53:53.251Z,44.34
2017-06-15T09:55:03.513Z,44.65
2017-06-15T09:56:13.777Z,44.75
2017-06-15T09:57:23.723Z,45.04
2017-06-15T09:58:33.673Z,45.23
2017-06-15T09:59:43.937Z,45.23
2017-06-15T10:00:54.212Z,44.65
2017-06-15T10:02:04.479Z,45.72
2017-06-15T10:03:14.429Z,44.84
2017-06-15T10:04:24.696Z,44.36
2017-06-15T10:05:34.955Z,45.72
2017-06-15T10:06:45.218Z,44.65
2017-06-15T10:07:55.183Z,44.75
2017-06-15T10:09:05.445Z,44.94
2017-06-15T10:10:15.080Z,44.75
2017-06-15T10:11:25.353Z,45.33
2017-06-15T10:12:35.616Z,45.42
2017-06-15T10:13:45.575Z,45.42
2017-06-15T10:14:55.522Z,44.65
2017-06-15T10:16:05.783Z,45.62
2017-06-15T10:17:15.743Z,45.62
2017-06-15T10:18:25.381Z,45.33
2017-06-15T10:19:35.652Z,45.33
2017-06-15T10:20:45.610Z,44.75
2017-06-15T10:21:55.553Z,45.52
2017-06-15T10:23:05.823Z,45.4
2017-06-15T10:24:15.775Z,45.62
2017-06-15T10:25:25.723Z,45.42
2017-06-15T10:26:35.995Z,45.14
2017-06-15T10:27:46.261Z,45.14
2017-06-15T10:28:56.208Z,45.14
2017-06-15T10:30:06.158Z,44.84
2017-06-15T10:31:16.110Z,44.84
2017-06-15T10:32:26.056Z,44.43
2017-06-15T10:33:35.694Z,45.52
2017-06-15T10:34:45.963Z,45.14
2017-06-15T10:35:56.226Z,44.94
2017-06-15T10:37:06.176Z,45.5
2017-06-15T10:38:15.813Z,45.62
2017-06-15T10:39:25.766Z,45.72
2017-06-15T10:40:36.038Z,45.23
2017-06-15T10:41:46.304Z,45.62
2017-06-15T10:42:56.262Z,45.23
2017-06-15T10:44:06.530Z,45.62
2017-06-15T10:45:16.801Z,45.62
2017-06-15T10:46:27.064Z,45.23
2017-06-15T10:47:37.323Z,45.33
2017-06-15T10:48:47.591Z,45.14
2017-06-15T10:49:57.225Z,45.62
2017-06-15T10:51:06.860Z,45.14
2017-06-15T10:52:16.807Z,45.23
2017-06-15T10:53:26.438Z,45.42
2017-06-15T10:54:36.702Z,45.23
2017-06-15T10:55:46.970Z,45.33
2017-06-15T10:56:57.234Z,45.59
2017-06-15T10:58:06.876Z,45.72
2017-06-15T10:59:17.137Z,45.23
2017-06-15T11:00:27.084Z,45.23
2017-06-15T11:01:37.351Z,45.23
2017-06-15T11:02:47.303Z,45.21
2017-06-15T11:03:57.565Z,45.81
2017-06-15T11:05:07.516Z,45.23
2017-06-15T11:06:17.151Z,45.62
2017-06-15T11:07:26.472Z,45.42
2017-06-15T11:08:36.747Z,45.23
2017-06-15T11:09:46.073Z,45.59
2017-06-15T11:10:56.336Z,45.72
2017-06-15T11:12:06.288Z,45.59
2017-06-15T11:13:16.552Z,45.21
2017-06-15T11:14:26.826Z,45.42
2017-06-15T11:15:37.101Z,45.42
2017-06-15T11:16:47.372Z,45.14
2017-06-15T11:17:57.635Z,45.72
2017-06-15T11:19:07.276Z,45.81
2017-06-15T11:20:16.912Z,45.23
2017-06-15T11:21:26.862Z,45.21
2017-06-15T11:22:36.495Z,45.14
2017-06-15T11:23:46.775Z,45.23
2017-06-15T11:24:56.404Z,45.23
2017-06-15T11:26:06.036Z,45.72
2017-06-15T11:27:16.304Z,45.23
2017-06-15T11:28:26.260Z,45.33
2017-06-15T11:29:36.205Z,45.23
2017-06-15T11:30:46.469Z,45.23
2017-06-15T11:31:56.106Z,45.31
2017-06-15T11:33:06.374Z,45.33
2017-06-15T11:34:16.661Z,45.23
2017-06-15T11:35:26.343Z,45.23
2017-06-15T11:36:35.977Z,45.72
2017-06-15T11:37:46.237Z,45.69
2017-06-15T11:38:55.873Z,45.04
2017-06-15T11:40:06.140Z,45.21
2017-06-15T11:41:15.777Z,45.11
2017-06-15T11:42:26.039Z,45.23
2017-06-15T11:43:36.306Z,45.21
2017-06-15T11:44:46.257Z,45.23
2017-06-15T11:45:56.516Z,45.69
2017-06-15T11:47:06.779Z,45.59
2017-06-15T11:48:17.046Z,45.23
2017-06-15T11:49:26.996Z,45.23
2017-06-15T11:50:37.257Z,45.33
2017-06-15T11:51:46.895Z,45.31
2017-06-15T11:52:56.527Z,45.23
2017-06-15T11:54:06.802Z,45.14
2017-06-15T11:55:17.068Z,45.59
2017-06-15T11:56:27.029Z,45.33
2017-06-15T11:57:36.972Z,45.33
2017-06-15T11:58:47.238Z,45.23
2017-06-15T11:59:56.561Z,45.81
2017-06-15T12:01:06.513Z,45.21
2017-06-15T12:02:16.464Z,45.23
2017-06-15T12:03:26.728Z,44.46
2017-06-15T12:04:37.034Z,41.75
2017-06-15T12:05:46.990Z,40.4
2017-06-15T12:06:56.305Z,40.69
2017-06-15T12:08:05.936Z,41.27
2017-06-15T12:09:15.888Z,41.17
2017-06-15T12:10:26.146Z,41.46
2017-06-15T12:11:36.101Z,41.46
2017-06-15T12:12:46.054Z,43.3
2017-06-15T12:13:56.012Z,42.43
2017-06-15T12:15:05.957Z,43.2
2017-06-15T12:16:15.906Z,43.2
2017-06-15T12:17:26.170Z,43.57
2017-06-15T12:18:36.435Z,43.68
2017-06-15T12:19:46.067Z,43.59
2017-06-15T12:20:56.330Z,42.91
2017-06-15T12:22:06.595Z,41.08
2017-06-15T12:23:16.861Z,40.4
2017-06-15T12:24:26.820Z,39.34
2017-06-15T12:25:37.086Z,39.14
2017-06-15T12:26:47.350Z,40.2
2017-06-15T12:27:57.300Z,41.46
2017-06-15T12:29:07.562Z,41.17
2017-06-15T12:30:17.511Z,41.94
2017-06-15T12:31:27.146Z,42.24
2017-06-15T12:32:37.412Z,41.75
2017-06-15T12:33:47.736Z,41.27
2017-06-15T12:34:58.026Z,41.35
2017-06-15T12:36:08.290Z,41.36
2017-06-15T12:37:17.923Z,38.95
2017-06-15T12:38:27.877Z,40.2
2017-06-15T12:39:38.144Z,39.53
2017-06-15T12:40:48.091Z,40.2
2017-06-15T12:41:58.044Z,41.66
2017-06-15T12:43:08.355Z,42.24
2017-06-15T12:44:18.003Z,42.33
2017-06-15T12:45:28.266Z,42.24
2017-06-15T12:46:37.910Z,42.62
2017-06-15T12:47:47.863Z,43.1
2017-06-15T12:48:57.820Z,43.01
2017-06-15T12:50:07.462Z,42.82
2017-06-15T12:51:17.415Z,43.49
2017-06-15T12:52:27.055Z,43.1
2017-06-15T12:53:36.698Z,44.07
2017-06-15T12:54:46.959Z,43.98
2017-06-15T12:55:56.912Z,43.88
2017-06-15T12:57:07.182Z,43.98
2017-06-15T12:58:17.130Z,43.88
2017-06-15T12:59:27.083Z,44.26
2017-06-15T13:00:37.038Z,44.26
2017-06-15T13:01:46.984Z,43.98
2017-06-15T13:02:57.264Z,44.07
2017-06-15T13:04:07.251Z,44.26
2017-06-15T13:05:17.525Z,43.88
2017-06-15T13:06:27.206Z,44.36
2017-06-15T13:07:37.473Z,44.26
2017-06-15T13:08:47.746Z,44.36
2017-06-15T13:09:58.018Z,44.65
2017-06-15T13:11:07.970Z,44.84
2017-06-15T13:12:18.247Z,44.36
2017-06-15T13:13:28.193Z,44.65
2017-06-15T13:14:38.138Z,44.17
2017-06-15T13:15:47.773Z,44.17
2017-06-15T13:16:58.037Z,44.36
2017-06-15T13:18:08.303Z,44.75
2017-06-15T13:19:18.562Z,44.65
2017-06-15T13:20:28.827Z,44.65
2017-06-15T13:21:38.459Z,44.84
2017-06-15T13:22:48.731Z,44.75
2017-06-15T13:23:59.010Z,44.84
2017-06-15T13:25:08.987Z,44.94
2017-06-15T13:26:19.249Z,44.84
2017-06-15T13:27:29.515Z,45.14
2017-06-15T13:28:39.500Z,45.33
2017-06-15T13:29:49.766Z,44.65
2017-06-15T13:31:00.032Z,45.33
2017-06-15T13:32:09.668Z,44.65
2017-06-15T13:33:19.931Z,44.84
2017-06-15T13:34:29.880Z,45.23
2017-06-15T13:35:39.514Z,45.14
2017-06-15T13:36:49.181Z,45.04
2017-06-15T13:37:59.447Z,45.14
2017-06-15T13:39:09.720Z,45.91
2017-06-15T13:40:19.673Z,45.33
2017-06-15T13:41:29.309Z,45.33
2017-06-15T13:42:39.257Z,45.23
2017-06-15T13:43:49.521Z,44.56
2017-06-15T13:44:59.787Z,45.52
2017-06-15T13:46:09.736Z,45.72
2017-06-15T13:47:19.997Z,45.23
2017-06-15T13:48:29.945Z,44.94
2017-06-15T13:49:39.897Z,45.64
2017-06-15T13:50:50.179Z,44.65
2017-06-15T13:52:00.452Z,44.36
2017-06-15T13:53:10.718Z,45.35
2017-06-15T13:54:20.985Z,44.65
2017-06-15T13:55:31.253Z,44.65
2017-06-15T13:56:41.206Z,45.52
2017-06-15T13:57:51.194Z,45.42
2017-06-15T13:59:01.148Z,45.62
2017-06-15T14:00:10.786Z,45.72
2017-06-15T14:01:21.053Z,45.42
2017-06-15T14:02:31.002Z,45.62
2017-06-15T14:03:41.263Z,45.72
2017-06-15T14:04:51.528Z,45.62
2017-06-15T14:06:01.792Z,45.14
2017-06-15T14:07:11.738Z,45.23
2017-06-15T14:08:21.694Z,45.62
2017-06-15T14:09:31.645Z,45.72
2017-06-15T14:10:41.597Z,45.62
2017-06-15T14:11:51.538Z,45.33
2017-06-15T14:13:01.490Z,45.23
2017-06-15T14:14:11.439Z,45.33
2017-06-15T14:15:21.703Z,45.04
2017-06-15T14:16:31.653Z,45.33
2017-06-15T14:17:41.289Z,45.23
2017-06-15T14:18:51.244Z,45.42
2017-06-15T14:20:01.507Z,45.23
2017-06-15T14:21:11.451Z,45.23
2017-06-15T14:22:21.719Z,45.33
2017-06-15T14:23:31.676Z,45.33
2017-06-15T14:24:41.945Z,45.33
2017-06-15T14:25:52.211Z,45.62
2017-06-15T14:27:02.479Z,45.23
2017-06-15T14:28:12.742Z,45.33
2017-06-15T14:29:23.004Z,45.33
2017-06-15T14:30:32.955Z,45.33
2017-06-15T14:31:42.900Z,45.23
2017-06-15T14:32:52.852Z,44.94
2017-06-15T14:34:02.485Z,45.62
2017-06-15T14:35:11.811Z,45.62
2017-06-15T14:36:21.804Z,45.23
2017-06-15T14:37:31.754Z,45.23
2017-06-15T14:38:41.706Z,45.62
2017-06-15T14:39:51.973Z,45.42
2017-06-15T14:41:02.236Z,45.72
2017-06-15T14:42:12.504Z,45.23
2017-06-15T14:43:22.144Z,45.23
2017-06-15T14:44:31.778Z,45.14
2017-06-15T14:45:41.417Z,45.62
2017-06-15T14:46:51.684Z,45.62
2017-06-15T14:48:01.945Z,45.72
2017-06-15T14:49:11.896Z,46.1
2017-06-15T14:50:22.164Z,45.52
2017-06-15T14:51:32.117Z,45.91
2017-06-15T14:52:42.385Z,45.23
2017-06-15T14:53:51.705Z,45.14
2017-06-15T14:55:01.970Z,45.23
2017-06-15T14:56:11.603Z,45.62
2017-06-15T14:57:21.557Z,45.72
2017-06-15T14:58:31.503Z,45.23
2017-06-15T14:59:41.766Z,44.94
2017-06-15T15:00:51.713Z,45.23
2017-06-15T15:02:01.981Z,45.23
2017-06-15T15:03:12.243Z,45.62